createdAt,value
2023-01-29T00:00:12.892Z,38.97
2023-01-29T00:02:40.448Z,37.25
2023-01-29T00:05:26.101Z,37.95
2023-01-29T00:07:56.508Z,37.70
2023-01-29T00:10:25.954Z,36.35
2023-01-29T00:12:53.613Z,38.78
2023-01-29T00:15:21.361Z,36.00
2023-01-29T00:17:48.944Z,37.70
2023-01-29T00:20:17.901Z,40.00
2023-01-29T00:22:45.615Z,40.20
2023-01-29T00:25:13.148Z,36.33
2023-01-29T00:27:40.734Z,38.55
2023-01-29T00:30:14.888Z,39.50
2023-01-29T00:32:43.102Z,37.72
2023-01-29T00:35:11.572Z,42.38
2023-01-29T00:37:39.130Z,42.80
2023-01-29T00:40:08.034Z,39.97
2023-01-29T00:42:54.439Z,38.10
2023-01-29T00:45:22.113Z,37.13
2023-01-29T00:47:50.180Z,38.05
2023-01-29T00:50:19.181Z,36.42
2023-01-29T00:52:48.663Z,36.10
2023-01-29T00:55:16.633Z,34.92
2023-01-29T00:57:45.026Z,35.33
2023-01-29T01:00:15.193Z,37.63
2023-01-29T01:03:01.857Z,37.70
2023-01-29T01:05:30.130Z,35.67
2023-01-29T01:07:59.388Z,37.15
2023-01-29T01:10:30.548Z,36.67
2023-01-29T01:13:01.546Z,38.22
2023-01-29T01:15:32.671Z,39.45
2023-01-29T01:18:01.685Z,39.20
2023-01-29T01:20:32.611Z,39.53
2023-01-29T01:23:00.107Z,39.20
2023-01-29T01:25:27.667Z,38.35
2023-01-29T01:27:57.604Z,38.15
2023-01-29T01:30:26.236Z,40.30
2023-01-29T01:32:54.047Z,36.72
2023-01-29T01:35:21.601Z,36.95
2023-01-29T01:37:49.873Z,37.25
2023-01-29T01:40:23.628Z,38.00
2023-01-29T01:42:54.781Z,37.25
2023-01-29T01:45:30.716Z,36.88
2023-01-29T01:48:15.498Z,37.22
2023-01-29T01:50:57.498Z,35.05
2023-01-29T01:53:38.505Z,35.30
2023-01-29T01:56:14.234Z,35.92
2023-01-29T01:58:47.842Z,34.85
2023-01-29T02:01:15.623Z,35.80
2023-01-29T02:04:08.965Z,37.08
2023-01-29T02:06:58.421Z,35.70
2023-01-29T02:09:38.880Z,36.28
2023-01-29T02:12:10.987Z,34.50
2023-01-29T02:14:41.414Z,38.05
2023-01-29T02:17:15.731Z,37.95
2023-01-29T02:19:56.979Z,35.05
2023-01-29T02:23:05.664Z,37.33
2023-01-29T02:26:07.146Z,34.60
2023-01-29T02:29:20.737Z,32.80
2023-01-29T02:31:54.455Z,34.17
2023-01-29T02:34:53.146Z,35.50
2023-01-29T02:37:31.869Z,38.38
2023-01-29T02:40:11.405Z,35.17
2023-01-29T02:42:51.425Z,36.45
2023-01-29T02:45:52.902Z,35.25
2023-01-29T02:48:23.163Z,33.40
2023-01-29T02:51:03.541Z,33.42
2023-01-29T02:53:46.413Z,35.00
2023-01-29T02:56:19.300Z,31.90
2023-01-29T02:59:23.677Z,34.63
2023-01-29T03:02:08.276Z,35.90
2023-01-29T03:04:43.225Z,38.15
2023-01-29T03:07:38.371Z,36.08
2023-01-29T03:10:13.639Z,38.80
2023-01-29T03:12:43.912Z,38.65
2023-01-29T03:15:18.136Z,36.05
2023-01-29T03:18:07.529Z,35.42
2023-01-29T03:20:48.374Z,35.72
2023-01-29T03:23:38.199Z,35.95
2023-01-29T03:26:29.641Z,34.42
2023-01-29T03:29:17.405Z,44.33
2023-01-29T03:32:04.457Z,38.05
2023-01-29T03:34:43.604Z,33.38
2023-01-29T03:37:19.228Z,39.47
2023-01-29T03:39:47.601Z,37.33
2023-01-29T03:42:38.398Z,35.05
2023-01-29T03:45:12.617Z,34.40
2023-01-29T03:48:08.639Z,35.33
2023-01-29T03:50:47.128Z,42.25
2023-01-29T03:53:47.269Z,35.85
2023-01-29T03:56:33.045Z,71.63
2023-01-29T03:59:02.710Z,37.40
2023-01-29T04:01:57.281Z,36.78
2023-01-29T04:04:30.015Z,37.63
2023-01-29T04:07:04.788Z,37.22
2023-01-29T04:09:43.091Z,37.83
2023-01-29T04:12:14.348Z,37.35
2023-01-29T04:14:46.420Z,42.95
2023-01-29T04:17:33.042Z,42.42
2023-01-29T04:20:11.459Z,39.17
2023-01-29T04:22:49.368Z,48.58
2023-01-29T04:25:26.778Z,46.83
2023-01-29T04:28:06.613Z,39.65
2023-01-29T04:30:54.784Z,38.50
2023-01-29T04:33:29.373Z,36.08
2023-01-29T04:36:16.385Z,32.90
2023-01-29T04:38:51.220Z,36.60
2023-01-29T04:43:56.497Z,40.13
2023-01-29T04:46:37.295Z,45.55
2023-01-29T04:49:20.654Z,62.53
2023-01-29T04:52:07.832Z,33.33
2023-01-29T04:55:07.241Z,30.02
2023-01-29T04:57:46.339Z,27.63
2023-01-29T05:00:19.382Z,25.27
2023-01-29T05:02:48.941Z,25.05
2023-01-29T05:05:20.163Z,24.77
2023-01-29T05:07:48.707Z,24.25
2023-01-29T05:10:20.344Z,23.02
2023-01-29T05:12:53.865Z,23.67
2023-01-29T05:15:28.054Z,24.35
2023-01-29T05:18:01.811Z,24.38
2023-01-29T05:20:34.673Z,25.27
2023-01-29T05:23:02.462Z,23.52
2023-01-29T05:25:32.737Z,25.08
2023-01-29T05:28:07.270Z,43.67
2023-01-29T05:30:37.450Z,33.35
2023-01-29T05:33:17.247Z,28.83
2023-01-29T05:35:45.491Z,32.83
2023-01-29T05:38:14.113Z,28.23
2023-01-29T05:40:43.014Z,34.92
2023-01-29T05:43:24.778Z,24.42
2023-01-29T05:45:57.469Z,25.85
2023-01-29T05:48:27.662Z,22.92
2023-01-29T05:51:01.232Z,23.05
2023-01-29T05:53:29.745Z,22.48
2023-01-29T05:55:57.363Z,22.67
2023-01-29T05:58:25.409Z,25.17
2023-01-29T06:00:53.272Z,22.08
2023-01-29T06:03:20.807Z,23.50
2023-01-29T06:05:48.430Z,23.42
2023-01-29T06:08:16.012Z,25.73
2023-01-29T06:10:43.647Z,23.80
2023-01-29T06:13:11.222Z,30.67
2023-01-29T06:15:40.808Z,30.77
2023-01-29T06:18:08.481Z,32.53
2023-01-29T06:20:37.365Z,28.45
2023-01-29T06:23:05.088Z,27.88
2023-01-29T06:25:32.648Z,27.35
2023-01-29T06:28:03.015Z,28.63
2023-01-29T06:30:31.955Z,32.03
2023-01-29T06:33:01.631Z,25.98
2023-01-29T06:35:29.245Z,34.97
2023-01-29T06:37:56.891Z,31.05
2023-01-29T06:40:25.002Z,32.45
2023-01-29T06:42:52.508Z,26.42
2023-01-29T06:45:20.015Z,27.73
2023-01-29T06:47:47.538Z,22.50
2023-01-29T06:50:15.551Z,24.92
2023-01-29T06:52:45.860Z,30.85
2023-01-29T06:55:13.357Z,24.08
2023-01-29T06:57:40.900Z,26.17
2023-01-29T07:00:09.983Z,23.40
2023-01-29T07:02:37.660Z,21.80
2023-01-29T07:05:05.501Z,34.78
2023-01-29T07:07:36.922Z,26.30
2023-01-29T07:10:05.197Z,27.27
2023-01-29T07:12:33.163Z,25.85
2023-01-29T07:15:00.684Z,25.95
2023-01-29T07:17:28.312Z,24.60
2023-01-29T07:19:55.993Z,21.50
2023-01-29T07:22:23.650Z,19.15
2023-01-29T07:24:51.214Z,29.13
2023-01-29T07:27:18.978Z,23.20
2023-01-29T07:29:46.714Z,18.33
2023-01-29T07:32:14.295Z,17.55
2023-01-29T07:34:41.854Z,17.48
2023-01-29T07:37:09.384Z,23.20
2023-01-29T07:39:37.189Z,25.08
2023-01-29T07:42:05.060Z,33.00
2023-01-29T07:44:32.525Z,43.95
2023-01-29T07:47:00.043Z,23.80
2023-01-29T07:49:27.566Z,19.42
2023-01-29T07:51:55.084Z,16.77
2023-01-29T07:54:22.657Z,21.02
2023-01-29T07:56:50.188Z,30.38
2023-01-29T07:59:18.021Z,22.30
2023-01-29T08:01:45.571Z,18.02
2023-01-29T08:04:13.135Z,23.50
2023-01-29T08:06:40.657Z,19.08
2023-01-29T08:09:08.871Z,25.83
2023-01-29T08:11:36.538Z,18.33
2023-01-29T08:14:04.115Z,16.02
2023-01-29T08:16:31.641Z,20.88
2023-01-29T08:18:59.283Z,16.63
2023-01-29T08:21:26.827Z,16.98
2023-01-29T08:23:54.426Z,15.13
2023-01-29T08:26:22.033Z,28.92
2023-01-29T08:28:50.055Z,17.90
2023-01-29T08:31:23.252Z,18.55
2023-01-29T08:33:51.273Z,16.30
2023-01-29T08:36:18.836Z,17.90
2023-01-29T08:38:46.388Z,17.48
2023-01-29T08:41:14.089Z,30.40
2023-01-29T08:43:41.786Z,26.77
2023-01-29T08:46:09.304Z,17.60
2023-01-29T08:48:36.960Z,15.57
2023-01-29T08:51:05.271Z,15.82
2023-01-29T08:53:33.394Z,18.50
2023-01-29T08:56:01.059Z,16.52
2023-01-29T08:58:28.883Z,18.65
2023-01-29T09:00:56.455Z,22.10
2023-01-29T09:03:23.966Z,20.52
2023-01-29T09:05:51.691Z,18.60
2023-01-29T09:08:19.308Z,17.40
2023-01-29T09:10:46.994Z,24.08
2023-01-29T09:13:14.658Z,18.50
2023-01-29T09:15:42.242Z,28.52
2023-01-29T09:18:09.875Z,17.77
2023-01-29T09:20:39.973Z,21.88
2023-01-29T09:23:09.771Z,18.23
2023-01-29T09:25:37.726Z,18.45
2023-01-29T09:28:06.288Z,15.90
2023-01-29T09:30:37.813Z,16.20
2023-01-29T09:33:06.142Z,14.65
2023-01-29T09:35:34.362Z,17.73
2023-01-29T09:38:01.991Z,15.93
2023-01-29T09:40:54.589Z,17.02
2023-01-29T09:43:31.408Z,20.42
2023-01-29T09:46:05.428Z,16.00
2023-01-29T09:48:36.443Z,13.15
2023-01-29T09:51:14.231Z,16.83
2023-01-29T09:54:05.183Z,18.58
2023-01-29T09:56:32.817Z,14.35
2023-01-29T09:59:01.693Z,12.93
2023-01-29T10:01:38.300Z,13.73
2023-01-29T10:04:43.338Z,14.85
2023-01-29T10:07:25.675Z,16.17
2023-01-29T10:10:14.851Z,16.60
2023-01-29T10:12:48.784Z,18.67
2023-01-29T10:15:31.311Z,19.02
2023-01-29T10:18:20.130Z,17.85
2023-01-29T10:20:53.530Z,14.45
2023-01-29T10:23:34.386Z,23.27
2023-01-29T10:26:02.687Z,14.90
2023-01-29T10:28:48.405Z,15.00
2023-01-29T10:31:25.052Z,13.27
2023-01-29T10:34:03.316Z,19.23
2023-01-29T10:36:42.719Z,14.25
2023-01-29T10:39:18.883Z,12.55
2023-01-29T10:42:05.904Z,15.30
2023-01-29T10:44:56.705Z,25.15
2023-01-29T10:47:54.150Z,12.27
2023-01-29T10:50:45.198Z,14.10
2023-01-29T10:53:23.000Z,17.23
2023-01-29T10:56:10.739Z,16.55
2023-01-29T10:58:59.518Z,20.93
2023-01-29T11:01:27.498Z,16.52
2023-01-29T11:04:02.280Z,16.65
2023-01-29T11:06:31.509Z,22.00
2023-01-29T11:09:09.253Z,12.48
2023-01-29T11:11:43.240Z,14.35
2023-01-29T11:14:16.629Z,23.33
2023-01-29T11:16:47.316Z,34.00
2023-01-29T11:19:16.225Z,23.13
2023-01-29T11:22:16.998Z,10.48
2023-01-29T11:24:44.719Z,20.33
2023-01-29T11:27:25.974Z,15.00
2023-01-29T11:29:54.415Z,10.70
2023-01-29T11:32:22.091Z,11.82
2023-01-29T11:35:03.822Z,12.20
2023-01-29T11:37:39.952Z,22.48
2023-01-29T11:40:40.620Z,17.52
2023-01-29T11:43:26.557Z,13.40
2023-01-29T11:45:55.968Z,11.75
2023-01-29T11:48:32.034Z,21.20
2023-01-29T11:51:01.586Z,12.32
2023-01-29T11:53:43.415Z,13.70
2023-01-29T11:56:27.119Z,13.50
2023-01-29T11:58:57.676Z,10.88
2023-01-29T12:01:33.071Z,15.07
2023-01-29T12:04:01.454Z,21.52
2023-01-29T12:06:41.500Z,12.95
2023-01-29T12:09:18.308Z,10.98
2023-01-29T12:11:45.871Z,9.95
2023-01-29T12:14:33.579Z,22.90
2023-01-29T12:17:11.708Z,9.60
2023-01-29T12:19:46.500Z,9.30
2023-01-29T12:22:41.810Z,21.77
2023-01-29T12:25:36.275Z,9.32
2023-01-29T12:28:22.689Z,10.35
2023-01-29T12:33:34.141Z,19.08
2023-01-29T12:36:26.946Z,11.20
2023-01-29T12:38:55.921Z,17.13
2023-01-29T12:41:38.468Z,7.57
2023-01-29T12:44:17.824Z,7.70
2023-01-29T12:46:56.777Z,16.50
2023-01-29T12:49:32.567Z,9.30
2023-01-29T12:52:13.434Z,9.52
2023-01-29T12:54:52.767Z,7.65
2023-01-29T12:57:41.119Z,6.80
2023-01-29T13:00:19.435Z,9.18
2023-01-29T13:03:03.720Z,10.45
2023-01-29T13:05:39.357Z,10.63
2023-01-29T13:08:32.140Z,9.57
2023-01-29T13:11:04.638Z,7.90
2023-01-29T13:13:53.987Z,7.47
2023-01-29T13:16:28.079Z,9.07
2023-01-29T13:19:00.597Z,9.18
2023-01-29T13:21:39.066Z,8.70
2023-01-29T13:24:16.643Z,32.03
2023-01-29T13:26:48.809Z,10.90
2023-01-29T13:29:26.747Z,12.88
2023-01-29T13:31:56.717Z,8.90
2023-01-29T13:34:31.635Z,7.70
2023-01-29T13:37:02.827Z,7.55
2023-01-29T13:39:39.669Z,7.70
2023-01-29T13:42:21.753Z,10.68
2023-01-29T13:45:03.262Z,7.88
2023-01-29T13:47:37.108Z,9.90
2023-01-29T13:50:19.609Z,8.88
2023-01-29T13:53:02.274Z,15.18
2023-01-29T13:55:40.970Z,14.00
2023-01-29T13:58:17.908Z,9.77
2023-01-29T14:00:45.399Z,18.67
2023-01-29T14:03:12.944Z,16.67
2023-01-29T14:05:44.489Z,11.75
2023-01-29T14:08:17.508Z,9.93
2023-01-29T14:10:45.175Z,13.13
2023-01-29T14:13:15.604Z,10.20
2023-01-29T14:15:43.835Z,10.05
2023-01-29T14:18:11.584Z,10.32
2023-01-29T14:21:01.376Z,9.98
2023-01-29T14:23:55.848Z,11.90
2023-01-29T14:26:38.819Z,10.85
2023-01-29T14:29:14.433Z,26.55
2023-01-29T14:31:46.825Z,22.08
2023-01-29T14:34:20.388Z,55.05
2023-01-29T14:36:55.293Z,13.07
2023-01-29T14:39:33.122Z,12.25
2023-01-29T14:42:04.509Z,21.17
2023-01-29T14:45:26.232Z,13.40
2023-01-29T14:47:57.409Z,12.10
2023-01-29T14:50:34.825Z,11.95
2023-01-29T14:53:14.641Z,14.38
2023-01-29T14:55:59.556Z,18.08
2023-01-29T14:59:02.942Z,13.68
2023-01-29T15:01:38.979Z,20.90
2023-01-29T15:04:12.060Z,18.88
2023-01-29T15:06:50.423Z,18.75
2023-01-29T15:09:36.646Z,16.15
2023-01-29T15:12:17.273Z,14.52
2023-01-29T15:15:17.378Z,15.13
2023-01-29T15:18:03.445Z,14.80
2023-01-29T15:20:40.386Z,15.00
2023-01-29T15:23:27.635Z,15.70
2023-01-29T15:25:58.128Z,17.30
2023-01-29T15:28:28.464Z,17.42
2023-01-29T15:30:59.086Z,17.58
2023-01-29T15:33:28.355Z,18.00
2023-01-29T15:36:06.954Z,21.45
2023-01-29T15:38:35.662Z,26.63
2023-01-29T15:41:17.223Z,28.70
2023-01-29T15:43:47.709Z,31.23
2023-01-29T15:46:25.048Z,28.20
2023-01-29T15:48:56.002Z,25.63
2023-01-29T15:51:26.383Z,22.60
2023-01-29T15:53:59.802Z,32.00
2023-01-29T15:56:38.613Z,24.67
2023-01-29T15:59:10.057Z,28.33
2023-01-29T16:01:37.891Z,27.15
2023-01-29T16:04:06.173Z,18.50
2023-01-29T16:06:37.902Z,20.38
2023-01-29T16:09:07.288Z,20.00
2023-01-29T16:11:35.751Z,27.65
2023-01-29T16:14:06.503Z,16.45
2023-01-29T16:16:34.858Z,17.58
2023-01-29T16:19:21.377Z,17.92
2023-01-29T16:21:58.949Z,17.75
2023-01-29T16:24:28.188Z,18.42
2023-01-29T16:27:09.765Z,21.77
2023-01-29T16:29:37.337Z,17.58
2023-01-29T16:32:06.847Z,19.02
2023-01-29T16:34:42.303Z,18.60
2023-01-29T16:37:25.637Z,17.83
2023-01-29T16:39:54.253Z,25.08
2023-01-29T16:42:26.934Z,23.33
2023-01-29T16:45:01.634Z,19.38
2023-01-29T16:47:34.913Z,20.00
2023-01-29T16:50:24.101Z,19.70
2023-01-29T16:53:01.178Z,28.05
2023-01-29T16:55:37.393Z,25.60
2023-01-29T16:58:15.189Z,22.27
2023-01-29T17:00:46.825Z,19.17
2023-01-29T17:03:17.127Z,20.50
2023-01-29T17:05:45.535Z,23.25
2023-01-29T17:08:34.410Z,21.98
2023-01-29T17:11:03.055Z,20.63
2023-01-29T17:13:43.839Z,20.05
2023-01-29T17:16:22.668Z,21.52
2023-01-29T17:18:50.430Z,19.63
2023-01-29T17:21:19.126Z,24.80
2023-01-29T17:23:47.065Z,20.73
2023-01-29T17:26:15.353Z,20.52
2023-01-29T17:28:43.290Z,21.83
2023-01-29T17:31:12.487Z,23.02
2023-01-29T17:33:43.103Z,22.65
2023-01-29T17:36:15.198Z,20.92
2023-01-29T17:38:43.590Z,20.20
2023-01-29T17:41:24.840Z,22.20
2023-01-29T17:43:52.459Z,22.48
2023-01-29T17:46:21.431Z,30.23
2023-01-29T17:48:49.433Z,21.17
2023-01-29T17:51:18.248Z,21.58
2023-01-29T17:53:47.068Z,23.95
2023-01-29T17:56:23.599Z,25.63
2023-01-29T17:58:51.742Z,28.75
2023-01-29T18:01:20.981Z,23.58
2023-01-29T18:03:48.827Z,30.92
2023-01-29T18:06:29.210Z,23.63
2023-01-29T18:08:57.517Z,23.63
2023-01-29T18:11:25.339Z,23.15
2023-01-29T18:13:53.055Z,24.67
2023-01-29T18:16:23.999Z,24.65
2023-01-29T18:18:52.973Z,24.17
2023-01-29T18:21:20.783Z,23.42
2023-01-29T18:23:48.227Z,23.65
2023-01-29T18:26:17.417Z,30.17
2023-01-29T18:28:45.268Z,25.63
2023-01-29T18:31:14.423Z,26.80
2023-01-29T18:33:42.433Z,26.35
2023-01-29T18:36:10.177Z,32.35
2023-01-29T18:38:37.953Z,26.73
2023-01-29T18:41:07.249Z,24.60
2023-01-29T18:43:35.005Z,22.70
2023-01-29T18:46:04.350Z,22.02
2023-01-29T18:48:32.600Z,28.33
2023-01-29T18:51:01.835Z,22.55
2023-01-29T18:53:29.752Z,23.77
2023-01-29T18:56:00.034Z,25.55
2023-01-29T18:58:35.611Z,29.58
2023-01-29T19:01:10.058Z,23.65
2023-01-29T19:03:39.803Z,32.15
2023-01-29T19:06:09.569Z,82.07
2023-01-29T19:08:37.553Z,26.08
2023-01-29T19:11:08.237Z,39.22
2023-01-29T19:13:37.009Z,31.08
2023-01-29T19:16:09.962Z,30.80
2023-01-29T19:18:38.852Z,23.38
2023-01-29T19:21:10.102Z,24.05
2023-01-29T19:23:38.165Z,25.23
2023-01-29T19:26:07.424Z,26.05
2023-01-29T19:28:35.670Z,21.42
2023-01-29T19:31:05.966Z,21.58
2023-01-29T19:33:33.944Z,21.70
2023-01-29T19:36:02.079Z,20.38
2023-01-29T19:38:33.452Z,22.88
2023-01-29T19:41:01.359Z,19.70
2023-01-29T19:43:30.701Z,20.23
2023-01-29T19:46:00.480Z,20.20
2023-01-29T19:48:28.597Z,22.70
2023-01-29T19:50:59.048Z,22.83
2023-01-29T19:53:30.809Z,21.85
2023-01-29T19:56:00.642Z,19.52
2023-01-29T19:58:29.273Z,23.98
2023-01-29T20:00:59.637Z,23.40
2023-01-29T20:03:29.113Z,21.30
2023-01-29T20:06:03.645Z,20.10
2023-01-29T20:08:32.510Z,18.55
2023-01-29T20:11:00.817Z,26.08
2023-01-29T20:13:29.051Z,34.97
2023-01-29T20:15:56.861Z,41.72
2023-01-29T20:18:26.067Z,42.05
2023-01-29T20:20:53.963Z,37.45
2023-01-29T20:23:35.493Z,29.58
2023-01-29T20:26:05.796Z,29.33
2023-01-29T20:28:34.630Z,42.05
2023-01-29T20:31:04.527Z,24.63
2023-01-29T20:33:33.645Z,25.15
2023-01-29T20:36:04.644Z,40.80
2023-01-29T20:38:33.894Z,37.20
2023-01-29T20:41:05.644Z,30.02
2023-01-29T20:43:34.082Z,20.40
2023-01-29T20:46:02.515Z,27.80
2023-01-29T20:48:31.174Z,26.42
2023-01-29T20:51:09.248Z,21.15
2023-01-29T20:53:37.222Z,20.23
2023-01-29T20:56:07.226Z,27.23
2023-01-29T20:58:35.871Z,32.03
2023-01-29T21:01:11.410Z,35.78
2023-01-29T21:03:40.005Z,46.97
2023-01-29T21:06:09.237Z,45.80
2023-01-29T21:08:38.130Z,34.50
2023-01-29T21:11:08.163Z,28.23
2023-01-29T21:13:36.849Z,26.48
2023-01-29T21:16:05.077Z,33.75
2023-01-29T21:18:32.900Z,26.77
2023-01-29T21:21:00.527Z,25.63
2023-01-29T21:23:29.370Z,29.58
2023-01-29T21:26:05.159Z,32.55
2023-01-29T21:28:33.761Z,38.00
2023-01-29T21:31:10.225Z,34.22
2023-01-29T21:33:38.344Z,27.10
2023-01-29T21:36:14.293Z,33.75
2023-01-29T21:38:41.948Z,24.40
2023-01-29T21:41:10.098Z,67.25
2023-01-29T21:43:38.044Z,44.92
2023-01-29T21:46:11.971Z,36.95
2023-01-29T21:48:40.658Z,32.70
2023-01-29T21:51:08.600Z,35.17
2023-01-29T21:53:36.769Z,65.72
2023-01-29T21:56:05.769Z,38.65
2023-01-29T21:58:33.736Z,37.63
2023-01-29T22:01:18.240Z,37.45
2023-01-29T22:03:48.705Z,30.73
2023-01-29T22:06:16.341Z,28.90
2023-01-29T22:08:43.784Z,26.67
2023-01-29T22:11:11.455Z,26.60
2023-01-29T22:13:39.165Z,76.03
2023-01-29T22:16:07.882Z,186.20
2023-01-29T22:18:35.625Z,48.83
2023-01-29T22:21:03.911Z,33.85
2023-01-29T22:23:31.964Z,73.50
2023-01-29T22:26:04.205Z,60.00
2023-01-29T22:28:31.690Z,49.03
2023-01-29T22:31:02.929Z,40.70
2023-01-29T22:33:30.912Z,27.02
2023-01-29T22:35:58.445Z,31.42
2023-01-29T22:38:26.640Z,29.95
2023-01-29T22:40:56.073Z,49.83
2023-01-29T22:43:26.024Z,24.23
2023-01-29T22:45:53.539Z,26.58
2023-01-29T22:48:23.091Z,25.45
2023-01-29T22:51:09.355Z,35.20
2023-01-29T22:53:37.762Z,45.05
2023-01-29T22:56:06.858Z,25.25
2023-01-29T22:58:34.663Z,28.08
2023-01-29T23:01:02.901Z,39.47
2023-01-29T23:03:30.407Z,26.08
2023-01-29T23:05:57.972Z,27.02
2023-01-29T23:08:25.568Z,27.00
2023-01-29T23:10:53.150Z,26.52
2023-01-29T23:13:21.042Z,26.88
2023-01-29T23:15:58.358Z,25.27
2023-01-29T23:18:26.241Z,25.48
2023-01-29T23:20:57.768Z,25.73
2023-01-29T23:23:25.272Z,26.95
2023-01-29T23:26:16.057Z,26.25
2023-01-29T23:28:43.843Z,26.80
2023-01-29T23:31:11.981Z,29.58
2023-01-29T23:33:39.838Z,27.95
2023-01-29T23:36:07.919Z,26.13
2023-01-29T23:38:35.415Z,28.17
2023-01-29T23:41:03.034Z,28.13
2023-01-29T23:43:31.432Z,57.22
2023-01-29T23:45:58.966Z,43.17
2023-01-29T23:48:26.811Z,146.73
2023-01-29T23:50:54.393Z,175.57
2023-01-29T23:53:22.168Z,81.75
2023-01-29T23:56:03.623Z,28.52
2023-01-29T23:58:32.558Z,29.17
